Time;durP1;ratioP1;P1;durP2;ratioP2;P2;SDS_P1;SDS_P2;PMS_P1;PMS_P2;Temp;Humidity;BMP_temperature;BMP_pressure;BME280_temperature;BME280_humidity;BME280_pressure;Samples;Min_cycle;Max_cycle;Signal;HPM_P1;HPM_P2
2023/04/10 00:00:32;;;;;;;45.38;32.85;;;;;;;5.02;70.50;102039.47;7394543;19;20021;-68
2023/04/10 00:03:02;;;;;;;43.45;30.95;;;;;;;4.98;70.61;102034.16;7393206;19;20505;-68
2023/04/10 00:05:31;;;;;;;43.25;31.75;;;;;;;4.94;70.75;102037.53;7394617;19;20039;-68
2023/04/10 00:08:00;;;;;;;43.75;32.08;;;;;;;4.89;70.84;102040.03;7392854;19;20023;-68
2023/04/10 00:10:30;;;;;;;46.83;31.75;;;;;;;4.84;70.81;102039.06;7394265;19;20520;-68
2023/04/10 00:12:59;;;;;;;42.95;32.22;;;;;;;4.80;70.90;102040.72;7392924;19;20021;-68
2023/04/10 00:15:30;;;;;;;44.70;31.60;;;;;;;4.76;71.15;102040.63;7392190;19;20519;-68
2023/04/10 00:17:59;;;;;;;45.78;33.25;;;;;;;4.72;71.36;102037.94;7394586;19;20089;-68
2023/04/10 00:20:27;;;;;;;45.00;32.22;;;;;;;4.68;71.47;102032.66;7394421;19;20015;-68
2023/04/10 00:22:56;;;;;;;41.38;30.45;;;;;;;4.66;71.62;102036.91;7392727;19;20041;-68
2023/04/10 00:25:25;;;;;;;51.50;33.13;;;;;;;4.62;71.71;102035.97;7394242;19;20078;-68
2023/04/10 00:27:54;;;;;;;46.70;32.67;;;;;;;4.60;71.71;102032.47;7399785;19;20014;-68
2023/04/10 00:30:23;;;;;;;43.55;32.65;;;;;;;4.58;71.82;102034.13;7402428;19;20018;-68
2023/04/10 00:32:54;;;;;;;46.33;32.13;;;;;;;4.55;72.10;102019.34;7400586;19;20381;-68
2023/04/10 00:35:22;;;;;;;47.35;32.65;;;;;;;4.52;72.15;102024.47;7401821;19;20025;-68
2023/04/10 00:37:53;;;;;;;46.88;32.85;;;;;;;4.50;72.16;102014.88;7401429;19;20011;-68
2023/04/10 00:40:21;;;;;;;46.72;32.83;;;;;;;4.47;72.26;102014.81;7398898;19;20014;-68
2023/04/10 00:42:50;;;;;;;44.30;32.40;;;;;;;4.45;72.48;102013.88;7399917;19;20089;-68
2023/04/10 00:45:18;;;;;;;33.55;23.38;;;;;;;4.39;72.28;102012.91;7400974;19;20083;-68
2023/04/10 00:47:47;;;;;;;34.85;23.40;;;;;;;4.35;72.70;102015.41;7401052;19;20023;-68
2023/04/10 00:50:18;;;;;;;34.30;23.75;;;;;;;4.31;72.88;102013.56;7399618;19;20343;-68
2023/04/10 00:52:47;;;;;;;33.28;23.13;;;;;;;4.27;73.08;102010.00;7400116;19;20556;-69
2023/04/10 00:55:16;;;;;;;32.72;23.85;;;;;;;4.22;73.40;102007.31;7400466;19;20094;-68
2023/04/10 00:57:48;;;;;;;32.35;23.67;;;;;;;4.20;73.31;101997.72;7400384;19;20512;-68
2023/04/10 01:00:18;;;;;;;36.95;24.55;;;;;;;4.19;73.53;102003.75;7401117;19;20025;-67
2023/04/10 01:02:46;;;;;;;34.58;25.40;;;;;;;4.18;73.59;102002.88;7399989;19;20040;-68
2023/04/10 01:05:17;;;;;;;37.17;25.17;;;;;;;4.18;73.48;102001.97;7400402;19;20025;-68
2023/04/10 01:07:59;;;;;;;38.75;27.48;;;;;;;4.15;73.55;101996.72;7400875;19;20022;-68
2023/04/10 01:10:36;;;;;;;38.90;26.83;;;;;;;4.14;73.76;102000.16;7399983;19;20015;-68
2023/04/10 01:13:10;;;;;;;38.63;28.73;;;;;;;4.15;73.71;102001.91;7399974;19;20502;-68
2023/04/10 01:15:45;;;;;;;39.20;29.20;;;;;;;4.12;73.90;101999.22;7400254;19;20022;-69
2023/04/10 01:18:21;;;;;;;43.60;30.10;;;;;;;4.10;73.98;101996.59;7399861;19;20011;-69
2023/04/10 01:20:52;;;;;;;43.63;31.13;;;;;;;4.08;73.74;101998.25;7399673;19;20511;-69
2023/04/10 01:23:42;;;;;;;38.42;27.83;;;;;;;4.05;73.89;101995.59;7398670;19;20018;-68
2023/04/10 01:26:12;;;;;;;39.22;27.65;;;;;;;4.01;73.96;101992.06;7399439;19;20082;-69
2023/04/10 01:28:59;;;;;;;37.33;25.83;;;;;;;3.98;73.97;101989.38;7399375;19;20024;-68
2023/04/10 01:31:36;;;;;;;35.42;26.27;;;;;;;3.96;74.29;101993.66;7400029;19;20070;-69
2023/04/10 01:34:08;;;;;;;33.95;24.45;;;;;;;3.91;74.36;101982.28;7397955;19;20025;-68
2023/04/10 01:36:42;;;;;;;36.30;26.33;;;;;;;3.88;74.30;101975.28;7399117;19;20603;-69
2023/04/10 01:39:12;;;;;;;36.85;26.45;;;;;;;3.86;74.20;101978.69;7397765;19;20421;-68
2023/04/10 01:41:43;;;;;;;35.25;25.65;;;;;;;3.82;74.40;101985.50;7399274;19;20021;-68
2023/04/10 01:44:16;;;;;;;33.33;25.85;;;;;;;3.80;74.26;101988.91;7397405;19;20025;-68
2023/04/10 01:46:46;;;;;;;33.42;25.27;;;;;;;3.74;74.51;101990.50;7399681;19;20074;-69
2023/04/10 01:49:15;;;;;;;34.92;25.20;;;;;;;3.72;74.31;101993.91;7398743;19;20037;-69
2023/04/10 01:51:45;;;;;;;36.58;25.77;;;;;;;3.68;74.39;101995.53;7396469;19;20082;-68
2023/04/10 01:54:14;;;;;;;35.17;25.48;;;;;;;3.63;74.54;101997.13;7396845;19;20365;-68
2023/04/10 01:56:43;;;;;;;34.70;25.73;;;;;;;3.59;74.45;102001.34;7398438;19;20544;-68
2023/04/10 01:59:14;;;;;;;38.35;26.98;;;;;;;3.55;74.40;101998.63;7396577;19;20086;-69
2023/04/10 02:01:43;;;;;;;39.47;27.83;;;;;;;3.51;74.55;101999.38;7399001;19;20024;-69
2023/04/10 02:04:11;;;;;;;35.28;26.40;;;;;;;3.46;74.76;101993.19;7396320;19;20015;-68
2023/04/10 02:06:46;;;;;;;34.28;26.52;;;;;;;3.41;74.60;101996.53;7395895;19;20485;-68
2023/04/10 02:09:23;;;;;;;35.00;27.38;;;;;;;3.38;74.77;101996.44;7398588;19;20041;-68
2023/04/10 02:12:00;;;;;;;38.33;27.10;;;;;;;3.34;74.74;101994.59;7398703;19;20092;-69
2023/04/10 02:14:33;;;;;;;36.58;27.17;;;;;;;3.30;74.92;101990.16;7396072;19;20484;-68
2023/04/10 02:17:04;;;;;;;34.90;26.67;;;;;;;3.26;74.85;101989.19;7395895;19;20468;-68
2023/04/10 02:19:33;;;;;;;35.55;26.95;;;;;;;3.22;75.12;101997.75;7395783;19;20015;-68
2023/04/10 02:22:02;;;;;;;38.85;27.30;;;;;;;3.20;75.02;101998.53;7397573;19;20528;-68
2023/04/10 02:24:30;;;;;;;37.45;28.05;;;;;;;3.15;74.93;101984.56;7395978;19;20025;-67
2023/04/10 02:27:00;;;;;;;40.25;28.55;;;;;;;3.11;75.12;101986.16;7397707;19;20081;-68
2023/04/10 02:29:31;;;;;;;36.78;26.83;;;;;;;3.06;75.20;101980.84;7397764;19;20010;-67
2023/04/10 02:31:59;;;;;;;36.25;26.63;;;;;;;3.04;75.33;101985.09;7397302;19;20553;-68
2023/04/10 02:34:28;;;;;;;36.13;27.20;;;;;;;3.01;75.33;101978.94;7395537;19;20030;-68
2023/04/10 02:36:56;;;;;;;37.95;26.92;;;;;;;2.98;75.72;101973.69;7395617;19;20090;-68
2023/04/10 02:39:25;;;;;;;35.00;25.75;;;;;;;2.96;75.53;101986.59;7395441;19;20011;-68
2023/04/10 02:41:53;;;;;;;36.28;26.52;;;;;;;2.94;75.75;101990.84;7397026;19;20021;-68
2023/04/10 02:44:21;;;;;;;34.72;26.10;;;;;;;2.91;75.88;101978.69;7395105;19;20487;-68
2023/04/10 02:46:52;;;;;;;35.25;26.08;;;;;;;2.87;75.75;101982.03;7396778;19;20430;-68
2023/04/10 02:49:21;;;;;;;33.08;24.25;;;;;;;2.84;75.95;101981.91;7394842;19;20022;-69
2023/04/10 02:51:49;;;;;;;34.72;25.17;;;;;;;2.82;76.02;101985.28;7393457;19;20074;-69
2023/04/10 02:54:17;;;;;;;34.88;22.65;;;;;;;2.78;75.94;101984.34;7395007;19;20082;-68
2023/04/10 02:56:46;;;;;;;31.45;23.40;;;;;;;2.76;75.96;101983.41;7396461;19;20553;-69
2023/04/10 02:59:14;;;;;;;32.22;24.08;;;;;;;2.73;75.84;101985.88;7395066;19;20363;-68
2023/04/10 03:01:43;;;;;;;32.10;23.52;;;;;;;2.69;76.18;101982.34;7396602;19;20021;-68
2023/04/10 03:04:14;;;;;;;34.05;23.98;;;;;;;2.68;76.06;101990.94;7394428;19;20485;-68
2023/04/10 03:06:42;;;;;;;32.85;22.90;;;;;;;2.66;76.02;101989.16;7395911;19;20028;-68
2023/04/10 03:09:11;;;;;;;33.50;24.00;;;;;;;2.63;76.24;101994.22;7396453;19;20069;-69
2023/04/10 03:11:46;;;;;;;31.83;23.42;;;;;;;2.59;76.28;101990.66;7395793;19;20022;-69
2023/04/10 03:14:15;;;;;;;28.42;22.45;;;;;;;2.56;76.31;101990.56;7394946;19;20040;-68
2023/04/10 03:16:44;;;;;;;30.92;23.33;;;;;;;2.53;76.10;101993.06;7396234;19;20029;-69
2023/04/10 03:19:15;;;;;;;35.00;24.13;;;;;;;2.50;76.32;101995.56;7394532;19;20031;-69
2023/04/10 03:21:43;;;;;;;30.40;22.85;;;;;;;2.48;76.24;101992.03;7396530;19;20035;-69
2023/04/10 03:24:12;;;;;;;32.38;23.13;;;;;;;2.45;76.14;101995.41;7394527;19;20107;-68
2023/04/10 03:26:40;;;;;;;29.20;22.30;;;;;;;2.42;76.26;101991.00;7395526;19;20015;-68
2023/04/10 03:29:09;;;;;;;32.33;22.98;;;;;;;2.40;76.45;101990.09;7393920;19;20035;-68
2023/04/10 03:31:37;;;;;;;32.28;23.98;;;;;;;2.38;76.49;101981.38;7394076;19;20033;-69
2023/04/10 03:34:06;;;;;;;32.88;23.85;;;;;;;2.36;76.67;101982.16;7394469;19;20019;-68
2023/04/10 03:36:37;;;;;;;27.75;20.75;;;;;;;2.33;76.80;101977.75;7395224;19;20427;-69
2023/04/10 03:39:05;;;;;;;23.38;17.52;;;;;;;2.31;76.92;101984.59;7393771;19;20424;-68
2023/04/10 03:41:34;;;;;;;24.17;17.13;;;;;;;2.28;76.95;101984.50;7395457;19;20037;-68
2023/04/10 03:44:03;;;;;;;24.67;17.30;;;;;;;2.24;76.88;101985.25;7393714;19;20485;-67
2023/04/10 03:46:31;;;;;;;23.90;16.73;;;;;;;2.20;77.15;101976.50;7395343;19;20025;-68
2023/04/10 03:49:00;;;;;;;26.25;18.30;;;;;;;2.18;77.32;101983.31;7394909;19;20014;-68
2023/04/10 03:51:28;;;;;;;23.38;16.05;;;;;;;2.17;77.10;101980.69;7393133;19;20019;-68
2023/04/10 03:53:59;;;;;;;24.60;17.38;;;;;;;2.18;77.38;101982.44;7393800;19;20023;-68
2023/04/10 03:56:28;;;;;;;31.67;23.17;;;;;;;2.16;77.50;101979.81;7393107;19;20032;-69
2023/04/10 03:58:56;;;;;;;31.08;22.48;;;;;;;2.15;77.60;101980.66;7394478;19;20018;-67
2023/04/10 04:01:25;;;;;;;92.80;52.55;;;;;;;2.15;77.32;101982.34;7395871;19;20035;-68
2023/04/10 04:03:53;;;;;;;38.63;26.45;;;;;;;2.11;77.68;101987.44;7400469;19;20039;-68
2023/04/10 04:06:22;;;;;;;32.38;23.88;;;;;;;2.10;77.53;101989.97;7402297;19;20032;-68
2023/04/10 04:08:50;;;;;;;33.17;23.25;;;;;;;2.09;77.78;101988.22;7401808;19;20043;-68
2023/04/10 04:11:21;;;;;;;29.40;21.85;;;;;;;2.06;77.70;101981.22;7401697;19;20015;-69
2023/04/10 04:13:50;;;;;;;30.30;21.52;;;;;;;2.05;77.82;101983.75;7400018;19;20484;-68
2023/04/10 04:16:18;;;;;;;30.75;20.38;;;;;;;2.02;77.55;101971.59;7401975;19;20022;-68
2023/04/10 04:18:47;;;;;;;28.50;21.65;;;;;;;2.00;77.80;101982.69;7399144;19;20031;-69
2023/04/10 04:21:15;;;;;;;29.50;21.73;;;;;;;1.97;77.63;101987.78;7401759;19;20395;-68
2023/04/10 04:23:44;;;;;;;35.75;22.98;;;;;;;1.93;77.72;101992.88;7400144;19;20027;-68
2023/04/10 04:26:12;;;;;;;31.52;21.60;;;;;;;1.91;77.79;101988.47;7401613;19;20045;-69
2023/04/10 04:28:43;;;;;;;30.25;20.33;;;;;;;1.87;77.76;101984.00;7401728;19;20067;-68
2023/04/10 04:31:12;;;;;;;29.77;20.80;;;;;;;1.86;77.71;101995.19;7401977;19;20032;-69
2023/04/10 04:33:40;;;;;;;29.88;20.15;;;;;;;1.83;77.57;101997.69;7399584;19;20480;-68
2023/04/10 04:36:09;;;;;;;30.95;21.55;;;;;;;1.81;77.69;101995.03;7401003;19;20014;-68
2023/04/10 04:38:38;;;;;;;27.92;19.85;;;;;;;1.78;77.84;101984.56;7400977;19;20620;-68
2023/04/10 04:41:07;;;;;;;30.80;20.83;;;;;;;1.76;77.57;101987.09;7398499;19;20035;-68
2023/04/10 04:43:35;;;;;;;30.92;21.48;;;;;;;1.74;77.56;101990.47;7399201;19;20094;-68
2023/04/10 04:46:07;;;;;;;29.70;20.23;;;;;;;1.73;77.74;101991.28;7398357;19;20031;-69
2023/04/10 04:48:37;;;;;;;31.45;20.60;;;;;;;1.70;77.57;101994.66;7400248;19;20391;-69
2023/04/10 04:51:07;;;;;;;27.55;19.38;;;;;;;1.71;77.61;101995.56;7397575;19;20018;-68
2023/04/10 04:53:36;;;;;;;30.25;20.77;;;;;;;1.70;77.56;101994.66;7399828;19;20022;-68
2023/04/10 04:56:05;;;;;;;31.30;21.02;;;;;;;1.70;77.80;101998.97;7400687;19;20035;-68
2023/04/10 04:58:33;;;;;;;26.42;18.42;;;;;;;1.68;77.89;101998.91;7400697;19;20022;-68
2023/04/10 05:01:02;;;;;;;23.20;16.08;;;;;;;1.68;77.97;101998.91;7397809;19;20086;-69
2023/04/10 05:03:40;;;;;;;21.67;15.88;;;;;;;1.66;77.91;102003.16;7399196;19;20027;-68
2023/04/10 05:06:09;;;;;;;20.75;14.80;;;;;;;1.66;77.87;102008.31;7400511;19;20396;-68
2023/04/10 05:08:37;;;;;;;22.23;16.58;;;;;;;1.68;78.18;102008.38;7400013;19;20015;-68
2023/04/10 05:11:06;;;;;;;28.25;19.85;;;;;;;1.71;77.88;102006.78;7400268;19;20022;-69
2023/04/10 05:13:35;;;;;;;29.10;20.55;;;;;;;1.73;78.19;102009.41;7396236;19;20015;-68
2023/04/10 05:16:03;;;;;;;27.42;20.20;;;;;;;1.75;78.16;102018.97;7399964;19;20023;-69
2023/04/10 05:18:36;;;;;;;29.35;20.55;;;;;;;1.77;77.98;102012.16;7399937;19;20031;-68
2023/04/10 05:21:05;;;;;;;27.02;19.25;;;;;;;1.78;78.12;102016.53;7400540;19;20022;-69
2023/04/10 05:23:33;;;;;;;27.52;20.25;;;;;;;1.83;77.98;102018.38;7398482;19;20392;-66
2023/04/10 05:26:01;;;;;;;29.75;19.92;;;;;;;1.85;77.98;102016.72;7399921;19;20018;-66
2023/04/10 05:28:30;;;;;;;30.02;20.42;;;;;;;1.88;77.92;102019.41;7399725;19;20015;-68
2023/04/10 05:30:58;;;;;;;29.90;20.38;;;;;;;1.92;78.04;102018.69;7397522;19;20027;-68
2023/04/10 05:33:27;;;;;;;31.90;21.27;;;;;;;1.94;78.26;102009.28;7398246;19;20022;-69
2023/04/10 05:35:58;;;;;;;31.90;21.20;;;;;;;1.98;78.08;102010.25;7399588;19;20019;-69
2023/04/10 05:38:26;;;;;;;30.40;20.48;;;;;;;2.01;78.09;102008.66;7399210;19;20074;-70
2023/04/10 05:40:56;;;;;;;36.63;22.58;;;;;;;2.06;78.09;102011.38;7399432;19;20010;-68
2023/04/10 05:43:25;;;;;;;35.40;21.80;;;;;;;2.11;78.44;102007.25;7397728;19;20383;-69
2023/04/10 05:45:53;;;;;;;30.98;20.83;;;;;;;2.16;78.61;102010.00;7396560;19;20022;-68
2023/04/10 05:48:24;;;;;;;29.77;20.55;;;;;;;2.20;78.70;102007.56;7399035;19;20022;-68
2023/04/10 05:50:53;;;;;;;34.17;21.88;;;;;;;2.25;78.92;102005.09;7396229;19;20354;-68
2023/04/10 05:53:31;;;;;;;34.60;23.05;;;;;;;2.32;78.83;102004.50;7398055;19;20029;-68
2023/04/10 05:56:00;;;;;;;43.22;24.80;;;;;;;2.40;78.92;102010.81;7396602;19;20477;-68
2023/04/10 05:58:30;;;;;;;45.95;26.50;;;;;;;2.47;79.46;102006.69;7396370;19;20485;-67
2023/04/10 06:00:59;;;;;;;45.92;25.25;;;;;;;2.54;79.71;102005.16;7398672;19;20022;-68
2023/04/10 06:03:29;;;;;;;49.72;27.58;;;;;;;2.64;80.00;102012.44;7396407;19;20039;-68
2023/04/10 06:05:58;;;;;;;41.58;25.17;;;;;;;2.73;80.20;102004.94;7396324;19;20023;-68
2023/04/10 06:08:29;;;;;;;34.25;23.42;;;;;;;2.83;80.39;102003.50;7398396;19;20021;-67
2023/04/10 06:10:57;;;;;;;41.80;24.25;;;;;;;2.93;80.50;102002.03;7397886;19;20018;-68
2023/04/10 06:13:26;;;;;;;40.85;24.45;;;;;;;3.03;80.68;101998.03;7397222;19;20022;-68
2023/04/10 06:15:54;;;;;;;43.63;25.48;;;;;;;3.10;80.78;101998.25;7397913;19;20018;-68
2023/04/10 06:18:23;;;;;;;41.35;26.02;;;;;;;3.23;80.85;102002.06;7397887;19;20082;-69
2023/04/10 06:20:51;;;;;;;37.35;24.25;;;;;;;3.33;81.14;101995.44;7398175;19;20022;-68
2023/04/10 06:23:20;;;;;;;36.67;23.42;;;;;;;3.43;81.06;101997.44;7397283;19;20031;-68
2023/04/10 06:25:51;;;;;;;35.63;24.02;;;;;;;3.52;81.42;101995.94;7395330;19;20495;-68
2023/04/10 06:28:20;;;;;;;36.00;24.27;;;;;;;3.64;81.50;101998.88;7398491;19;20011;-68
2023/04/10 06:30:48;;;;;;;35.83;24.77;;;;;;;3.74;81.43;101995.69;7396022;19;20031;-72
2023/04/10 06:33:38;;;;;;;38.60;24.75;;;;;;;3.86;81.24;101989.06;7396519;19;20010;-69
2023/04/10 06:36:07;;;;;;;39.92;25.00;;;;;;;3.97;81.23;101987.63;7397385;19;20014;-66
2023/04/10 06:38:36;;;;;;;39.50;24.88;;;;;;;4.06;81.45;101981.78;7396926;19;20385;-67
2023/04/10 06:41:08;;;;;;;42.33;26.02;;;;;;;4.16;81.41;101980.31;7397194;19;20119;-66
2023/04/10 06:43:37;;;;;;;38.70;24.25;;;;;;;4.26;81.49;101982.28;7396459;19;20026;-66
2023/04/10 06:46:06;;;;;;;41.15;26.63;;;;;;;4.35;81.84;101990.28;7395428;19;20019;-67
2023/04/10 06:48:35;;;;;;;43.35;26.15;;;;;;;4.45;81.90;101990.50;7396791;19;20410;-66
2023/04/10 06:51:16;;;;;;;40.28;24.63;;;;;;;4.55;81.88;101988.16;7395264;19;20485;-66
2023/04/10 06:53:45;;;;;;;43.40;26.67;;;;;;;4.65;81.89;101984.06;7396104;19;20032;-66
2023/04/10 06:56:17;;;;;;;44.88;28.38;;;;;;;4.74;82.08;101978.19;7394787;19;20011;-66
2023/04/10 06:58:45;;;;;;;47.05;29.20;;;;;;;4.83;82.10;101972.31;7397076;19;20022;-67
2023/04/10 07:01:13;;;;;;;44.78;26.55;;;;;;;4.92;82.13;101974.25;7396277;19;20018;-68
2023/04/10 07:03:42;;;;;;;45.38;28.23;;;;;;;5.00;82.17;101976.13;7394418;19;20023;-69
2023/04/10 07:06:12;;;;;;;213.30;119.75;;;;;;;5.08;82.15;101967.63;7393723;19;20371;-68
2023/04/10 07:08:40;;;;;;;93.38;52.45;;;;;;;5.16;82.25;101971.25;7393833;19;20481;-68
2023/04/10 07:11:09;;;;;;;46.42;30.05;;;;;;;5.25;82.07;101971.44;7395983;19;20106;-69
2023/04/10 07:13:40;;;;;;;46.13;28.55;;;;;;;5.32;82.14;101972.44;7394486;19;20031;-69
2023/04/10 07:16:10;;;;;;;46.15;28.42;;;;;;;5.39;82.30;101969.09;7396242;19;20040;-69
2023/04/10 07:18:40;;;;;;;42.42;27.17;;;;;;;5.46;82.24;101971.00;7396022;19;20039;-70
2023/04/10 07:21:13;;;;;;;43.47;26.35;;;;;;;5.54;82.44;101969.38;7395898;19;20010;-69
2023/04/10 07:23:41;;;;;;;43.70;26.83;;;;;;;5.62;82.20;101971.28;7395346;19;20015;-69
2023/04/10 07:26:10;;;;;;;45.78;27.48;;;;;;;5.68;82.22;101969.66;7393908;19;20035;-69
2023/04/10 07:28:41;;;;;;;47.83;29.65;;;;;;;5.76;82.33;101977.59;7394115;19;20022;-69
2023/04/10 07:31:10;;;;;;;45.42;27.85;;;;;;;5.83;82.53;101971.66;7395903;19;20022;-69
2023/04/10 07:33:38;;;;;;;45.22;27.85;;;;;;;5.91;82.20;101977.00;7394760;19;20015;-69
2023/04/10 07:36:08;;;;;;;48.03;28.80;;;;;;;5.97;82.32;101974.50;7393821;19;20481;-68
2023/04/10 07:38:37;;;;;;;46.60;28.33;;;;;;;6.05;82.35;101968.56;7395505;19;20414;-68
2023/04/10 07:41:07;;;;;;;44.22;28.77;;;;;;;6.11;82.10;101966.06;7394959;19;20023;-68
2023/04/10 07:43:35;;;;;;;45.30;29.45;;;;;;;6.19;82.28;101964.47;7393520;19;20018;-68
2023/04/10 07:46:07;;;;;;;46.35;30.58;;;;;;;6.27;82.35;101970.69;7392801;19;20431;-68
2023/04/10 07:48:35;;;;;;;60.22;36.33;;;;;;;6.35;82.69;101962.97;7394311;19;20502;-69
2023/04/10 07:51:04;;;;;;;54.92;32.28;;;;;;;6.43;82.41;101956.16;7393308;19;20019;-69
2023/04/10 07:53:32;;;;;;;50.10;31.00;;;;;;;6.53;82.48;101951.94;7392757;19;20018;-69
2023/04/10 07:56:01;;;;;;;49.90;30.33;;;;;;;6.63;82.73;101966.00;7393775;19;20024;-69
2023/04/10 07:58:29;;;;;;;50.33;31.92;;;;;;;6.73;82.26;101961.78;7394101;19;20024;-69
2023/04/10 08:00:58;;;;;;;51.22;31.65;;;;;;;6.83;82.42;101959.31;7393913;19;20523;-69
2023/04/10 08:03:30;;;;;;;53.05;33.65;;;;;;;6.94;82.54;101951.63;7393304;19;20022;-69
2023/04/10 08:05:58;;;;;;;53.63;32.28;;;;;;;7.06;82.44;101950.91;7393240;19;20361;-69
2023/04/10 08:08:27;;;;;;;53.33;32.35;;;;;;;7.17;82.14;101948.44;7392131;19;20028;-69
2023/04/10 08:10:55;;;;;;;57.25;32.42;;;;;;;7.28;82.23;101953.75;7394167;19;20022;-69
2023/04/10 08:13:23;;;;;;;48.90;30.60;;;;;;;7.38;82.11;101941.69;7393274;19;20022;-68
2023/04/10 08:15:52;;;;;;;50.10;31.58;;;;;;;7.49;82.01;101940.06;7392465;19;20025;-69
2023/04/10 08:18:21;;;;;;;44.70;29.17;;;;;;;7.60;81.89;101938.44;7394403;19;20081;-69
2023/04/10 08:20:52;;;;;;;45.72;29.13;;;;;;;7.74;82.10;101940.31;7393796;19;20010;-69
2023/04/10 08:23:20;;;;;;;43.97;28.08;;;;;;;7.86;81.73;101932.59;7393545;19;20043;-69
2023/04/10 08:25:49;;;;;;;47.00;30.05;;;;;;;7.99;81.47;101930.94;7392588;19;20015;-69
2023/04/10 08:28:18;;;;;;;44.00;29.13;;;;;;;8.10;81.36;101931.00;7394082;19;20032;-69
2023/04/10 08:30:46;;;;;;;45.40;28.65;;;;;;;8.22;81.20;101928.50;7393465;19;20010;-68
2023/04/10 08:33:15;;;;;;;37.97;25.90;;;;;;;8.35;80.97;101925.97;7392887;19;20022;-70
2023/04/10 08:35:43;;;;;;;37.05;24.58;;;;;;;8.47;80.94;101926.09;7393825;19;20074;-69
2023/04/10 08:38:14;;;;;;;39.88;26.25;;;;;;;8.61;80.50;101932.25;7393942;19;20048;-69
2023/04/10 08:40:43;;;;;;;33.50;24.02;;;;;;;8.77;80.26;101924.47;7391504;19;20010;-69
2023/04/10 08:43:11;;;;;;;40.22;25.95;;;;;;;8.86;79.99;101908.84;7392485;19;20035;-69
2023/04/10 08:45:42;;;;;;;37.35;25.17;;;;;;;9.09;79.34;101921.13;7392604;19;20019;-69
2023/04/10 08:48:12;;;;;;;32.17;23.50;;;;;;;9.25;78.70;101916.81;7396935;19;20503;-69
2023/04/10 08:50:45;;;;;;;31.08;20.92;;;;;;;9.41;78.16;101905.50;7399714;19;20011;-69
2023/04/10 08:53:17;;;;;;;30.67;21.88;;;;;;;9.58;77.43;101907.28;7399751;19;20022;-69
2023/04/10 08:55:47;;;;;;;30.58;21.08;;;;;;;9.74;76.88;101913.38;7401034;19;20018;-69
2023/04/10 08:58:17;;;;;;;30.52;20.63;;;;;;;9.89;76.27;101912.53;7400695;19;20015;-69
2023/04/10 09:00:46;;;;;;;31.35;20.60;;;;;;;10.01;75.39;101901.16;7397311;19;20033;-71
2023/04/10 09:03:16;;;;;;;28.17;20.40;;;;;;;10.17;74.81;101892.38;7398991;19;20015;-71
2023/04/10 09:05:45;;;;;;;29.60;21.60;;;;;;;10.32;74.50;101890.63;7398955;19;20022;-70
2023/04/10 09:08:16;;;;;;;32.22;21.40;;;;;;;10.47;73.94;101879.25;7400328;19;20022;-70
2023/04/10 09:10:45;;;;;;;33.28;21.85;;;;;;;10.62;73.52;101888.84;7400641;19;20022;-69
2023/04/10 09:13:13;;;;;;;27.45;19.63;;;;;;;10.74;72.17;101880.88;7398977;19;20375;-69
2023/04/10 09:15:58;;;;;;;22.92;17.35;;;;;;;10.87;69.07;101884.34;7399592;19;20031;-69
2023/04/10 09:18:42;;;;;;;25.58;19.08;;;;;;;10.99;67.95;101879.00;7399747;19;20010;-69
2023/04/10 09:21:12;;;;;;;24.23;17.75;;;;;;;11.11;68.90;101870.22;7399590;19;20035;-69
2023/04/10 09:23:44;;;;;;;21.42;16.20;;;;;;;11.19;67.59;101863.16;7397497;19;20022;-69
2023/04/10 09:26:26;;;;;;;18.70;15.00;;;;;;;11.34;64.94;101864.81;7398641;19;20036;-69
2023/04/10 09:28:59;;;;;;;21.05;14.23;;;;;;;11.46;66.00;101862.97;7399769;19;20035;-69
2023/04/10 09:31:35;;;;;;;17.45;13.35;;;;;;;11.55;63.76;101861.16;7400207;19;20037;-69
2023/04/10 09:34:15;;;;;;;20.80;14.75;;;;;;;11.66;62.30;101857.56;7398384;19;20497;-69
2023/04/10 09:36:45;;;;;;;18.75;14.45;;;;;;;11.75;63.81;101849.56;7400415;19;20043;-70
2023/04/10 09:39:16;;;;;;;18.98;14.80;;;;;;;11.84;62.86;101844.25;7399892;19;20018;-69
2023/04/10 09:41:53;;;;;;;19.58;14.80;;;;;;;11.95;61.77;101845.91;7398895;19;20485;-70
2023/04/10 09:44:31;;;;;;;18.13;14.52;;;;;;;12.04;61.41;101835.31;7397399;19;20076;-69
2023/04/10 09:46:59;;;;;;;18.50;14.30;;;;;;;12.12;62.27;101836.13;7396434;19;20489;-69
2023/04/10 09:49:28;;;;;;;19.77;14.18;;;;;;;12.20;61.73;101822.88;7398154;19;20019;-69
2023/04/10 09:51:56;;;;;;;16.70;13.10;;;;;;;12.28;61.27;101825.41;7395768;19;20028;-68
2023/04/10 09:54:39;;;;;;;18.55;13.75;;;;;;;12.38;58.70;101827.03;7394474;19;20380;-69
2023/04/10 09:57:09;;;;;;;15.82;12.38;;;;;;;12.46;58.67;101819.94;7395368;19;20026;-69
2023/04/10 09:59:43;;;;;;;15.45;11.52;;;;;;;12.57;58.29;101811.88;7396406;19;20070;-68
2023/04/10 10:02:12;;;;;;;18.25;14.40;;;;;;;12.67;58.17;101807.38;7395534;19;20031;-68
2023/04/10 10:04:42;;;;;;;19.02;13.68;;;;;;;12.75;57.63;101802.00;7395161;19;20022;-68
2023/04/10 10:07:11;;;;;;;13.07;9.65;;;;;;;12.79;56.03;101804.59;7395725;19;20427;-69
2023/04/10 10:09:43;;;;;;;14.88;11.45;;;;;;;12.85;55.74;101801.88;7394737;19;20485;-70
2023/04/10 10:12:13;;;;;;;19.13;13.60;;;;;;;12.95;55.84;101801.72;7397277;19;20023;-69
2023/04/10 10:14:50;;;;;;;16.70;12.52;;;;;;;13.02;53.68;101792.84;7395460;19;20018;-69
2023/04/10 10:17:21;;;;;;;14.45;11.48;;;;;;;13.11;55.01;101792.69;7397728;19;20018;-68
2023/04/10 10:19:58;;;;;;;16.65;12.25;;;;;;;13.18;53.09;101796.97;7397665;19;20388;-68
2023/04/10 10:22:29;;;;;;;16.70;12.98;;;;;;;13.25;54.35;101786.34;7394645;19;20047;-69
2023/04/10 10:25:02;;;;;;;14.10;11.00;;;;;;;13.30;52.25;101777.44;7395299;19;20018;-68
2023/04/10 10:27:33;;;;;;;19.13;14.02;;;;;;;13.38;53.20;101769.44;7395303;19;20031;-68
2023/04/10 10:30:02;;;;;;;13.60;10.48;;;;;;;13.46;53.29;101770.19;7396931;19;20022;-68
2023/04/10 10:32:32;;;;;;;14.32;11.60;;;;;;;13.54;52.84;101764.78;7394497;19;20031;-68
2023/04/10 10:35:02;;;;;;;14.43;10.73;;;;;;;13.60;52.67;101762.03;7396637;19;20018;-68
2023/04/10 10:37:31;;;;;;;12.90;9.73;;;;;;;13.66;52.19;101747.88;7395055;19;20039;-68
2023/04/10 10:40:11;;;;;;;14.73;10.50;;;;;;;13.78;50.68;101752.06;7397269;19;20019;-68
2023/04/10 10:42:47;;;;;;;11.85;8.88;;;;;;;13.87;51.07;101749.22;7396631;19;20018;-68
2023/04/10 10:45:19;;;;;;;12.27;9.45;;;;;;;13.96;50.71;101748.19;7396269;19;20420;-70
2023/04/10 10:47:52;;;;;;;11.82;9.90;;;;;;;14.03;50.38;101749.81;7394934;19;20010;-68
2023/04/10 10:50:22;;;;;;;13.07;9.82;;;;;;;14.08;50.21;101739.13;7394430;19;20014;-69
2023/04/10 10:52:52;;;;;;;14.68;10.55;;;;;;;14.11;49.92;101736.47;7394015;19;20017;-67
2023/04/10 10:55:39;;;;;;;12.07;9.75;;;;;;;14.16;47.90;101742.50;7397118;19;20030;-67
2023/04/10 10:58:10;;;;;;;11.40;9.43;;;;;;;14.23;49.35;101727.41;7394743;19;20022;-67
2023/04/10 11:01:09;;;;;;;10.80;9.25;;;;;;;14.29;48.73;101725.53;7394770;19;20018;-67
2023/04/10 11:03:37;;;;;;;15.68;11.32;;;;;;;14.36;48.92;101731.53;7394831;19;20018;-68
2023/04/10 11:06:11;;;;;;;12.38;10.70;;;;;;;14.40;48.17;101719.97;7394141;19;20014;-67
2023/04/10 11:08:46;;;;;;;11.43;8.38;;;;;;;14.45;47.62;101725.19;7395877;19;20070;-69
2023/04/10 11:11:18;;;;;;;10.63;7.90;;;;;;;14.50;46.40;101720.66;7393008;19;20037;-69
2023/04/10 11:14:20;;;;;;;9.48;8.23;;;;;;;14.54;46.07;101710.91;7394448;19;20011;-69
2023/04/10 11:16:49;;;;;;;11.88;10.40;;;;;;;14.57;47.11;101705.53;7394944;19;20074;-69
2023/04/10 11:19:20;;;;;;;12.07;9.70;;;;;;;14.61;46.58;101701.94;7394966;19;20010;-68
2023/04/10 11:22:07;;;;;;;11.43;9.73;;;;;;;14.63;45.81;101693.06;7395736;19;20014;-68
2023/04/10 11:24:57;;;;;;;12.45;10.20;;;;;;;14.67;45.61;101693.88;7393236;19;20040;-67
2023/04/10 11:27:57;;;;;;;12.90;9.90;;;;;;;14.71;46.21;101698.22;7394182;19;20021;-68
2023/04/10 11:30:35;;;;;;;12.77;11.10;;;;;;;14.77;47.05;101687.50;7397441;19;20025;-68
2023/04/10 11:33:05;;;;;;;12.07;9.80;;;;;;;14.84;46.99;101682.91;7393661;19;20014;-68